Martinville, Arkansas
Current Conditions -  °F | °C
As of 8:35 AM on Thursday 27 Nov 2014 (Local Time) from KCCA Reporting Station
Clear Clear  
Wind Chill: 33°   Ceiling: Unl
Heat Index: 37°   Visibility: 8mi
Dew Point: 25°   Wind: 6mph
Humidity: 60%   Direction: 320°NW
Pressure: 30.52"   Gusts: NA
Location:  35.3032°N, 92.4407°W
Report Text: KCCA 271435Z AUTO 32005KT 8SM CLR 03/M04 A3052 RMK AO2
Loading
Personal Weather Stations






























Interactive Weather Map New forecast layout! Learn more

10-Day Weather Forecast

Advertisements
Track Severe Weather on mobile